Time;durP1;ratioP1;P1;durP2;ratioP2;P2;SDS_P1;SDS_P2;PMS_P1;PMS_P2;Temp;Humidity;BMP_temperature;BMP_pressure;BME280_temperature;BME280_humidity;BME280_pressure;Samples;Min_cycle;Max_cycle;Signal;HPM_P1;HPM_P2
2023/03/14 00:04:44;;;;;;;21.77;4.82;;;;;;;13.35;76.53;101054.16;10335917;28;96724;-75
2023/03/14 00:09:49;;;;;;;23.63;4.68;;;;;;;13.31;76.45;101054.34;10336799;28;97130;-75
2023/03/14 00:14:53;;;;;;;24.45;5.53;;;;;;;13.27;76.66;101048.31;10339647;28;96597;-75
2023/03/14 00:19:56;;;;;;;21.83;3.97;;;;;;;13.17;76.72;101041.63;10343411;28;97014;-75
2023/03/14 00:25:00;;;;;;;17.77;4.35;;;;;;;13.09;77.30;101043.72;10302368;28;96730;-76
2023/03/14 00:30:05;;;;;;;21.27;4.65;;;;;;;13.08;76.83;101035.84;10300352;28;97004;-75
2023/03/14 00:35:09;;;;;;;20.83;5.47;;;;;;;12.93;77.18;101031.13;10321874;28;96796;-75
2023/03/14 00:40:14;;;;;;;19.92;4.43;;;;;;;12.90;77.07;101029.44;10342300;28;96594;-76
2023/03/14 00:45:17;;;;;;;;;;;;;;;12.83;77.82;101037.66;10343273;28;96651;-76
2023/03/14 00:50:20;;;;;;;20.17;4.80;;;;;;;12.80;77.30;101036.00;10342330;28;97191;-75
2023/03/14 00:55:25;;;;;;;19.08;4.85;;;;;;;12.66;78.31;101043.53;10342122;28;96993;-76
2023/03/14 01:00:28;;;;;;;19.48;4.70;;;;;;;12.70;78.41;101039.88;10342078;28;96688;-76
2023/03/14 01:05:32;;;;;;;20.45;4.65;;;;;;;12.61;78.91;101042.81;10342519;28;96942;-75
2023/03/14 01:10:39;;;;;;;28.08;5.22;;;;;;;12.75;78.27;101047.63;10341890;28;96551;-76
2023/03/14 01:15:43;;;;;;;18.58;4.38;;;;;;;12.90;78.00;101044.44;10302524;28;96705;-75
2023/03/14 01:20:46;;;;;;;23.88;5.60;;;;;;;12.90;77.79;101053.22;10299653;28;96693;-76
2023/03/14 01:25:51;;;;;;;24.40;5.32;;;;;;;12.81;77.99;101056.19;10299873;28;96997;-75
2023/03/14 01:30:54;;;;;;;24.50;5.00;;;;;;;12.66;78.60;101059.38;10300018;28;96591;-76
2023/03/14 01:35:57;;;;;;;22.42;5.55;;;;;;;12.52;78.23;101061.63;10300088;28;97178;-75
2023/03/14 01:41:03;;;;;;;21.88;6.05;;;;;;;12.42;78.94;101066.34;10318036;28;96777;-75
2023/03/14 01:46:33;;;;;;;19.30;4.55;;;;;;;12.42;78.75;101079.56;10340550;28;97077;-76
2023/03/14 01:51:43;;;;;;;23.80;5.82;;;;;;;12.49;78.86;101074.94;10340773;28;96791;-75
2023/03/14 01:56:53;;;;;;;20.05;5.50;;;;;;;12.37;78.55;101081.50;10341215;28;96802;-75
2023/03/14 02:01:56;;;;;;;23.00;5.65;;;;;;;12.32;79.17;101075.47;10339894;28;97592;-76
2023/03/14 02:07:06;;;;;;;21.83;5.05;;;;;;;12.25;79.10;101075.75;10298696;28;96700;-76
2023/03/14 02:12:14;;;;;;;26.58;5.78;;;;;;;12.13;80.04;101078.81;10297627;28;96738;-75
2023/03/14 02:17:19;;;;;;;21.40;6.40;;;;;;;12.02;79.37;101078.28;10298539;28;96794;-76
2023/03/14 02:22:23;;;;;;;;;;;;;;;11.92;80.08;101077.72;10299482;28;97443;-75
2023/03/14 02:27:28;;;;;;;22.20;4.88;;;;;;;12.00;79.13;101088.88;10298518;28;97327;-76
2023/03/14 02:32:35;;;;;;;21.15;6.15;;;;;;;12.01;79.69;101081.84;10298309;28;96610;-75
2023/03/14 02:37:44;;;;;;;18.48;5.50;;;;;;;11.95;79.57;101082.03;10297732;28;96668;-76
2023/03/14 02:42:49;;;;;;;18.63;5.78;;;;;;;11.78;79.52;101081.69;10330555;28;96668;-75
2023/03/14 02:47:58;;;;;;;22.08;5.90;;;;;;;11.68;80.35;101075.00;10339624;28;96591;-75
2023/03/14 02:53:01;;;;;;;19.50;5.40;;;;;;;11.70;79.98;101079.28;10337930;28;96921;-75
2023/03/14 02:58:06;;;;;;;19.50;4.50;;;;;;;11.81;79.30;101068.41;10338018;28;96817;-76
2023/03/14 03:03:09;;;;;;;15.30;4.35;;;;;;;11.85;78.76;101067.41;10337249;28;96714;-76
2023/03/14 03:08:13;;;;;;;28.90;5.70;;;;;;;11.81;78.92;101071.03;10338351;28;96694;-76
2023/03/14 03:13:18;;;;;;;18.83;4.18;;;;;;;11.67;79.75;101054.78;10337308;28;97535;-76
2023/03/14 03:18:21;;;;;;;16.17;4.03;;;;;;;11.63;79.19;101067.19;10338223;28;97434;-76
2023/03/14 03:23:25;;;;;;;22.75;5.28;;;;;;;11.57;79.44;101058.63;10337867;28;97033;-75
2023/03/14 03:28:29;;;;;;;20.02;5.18;;;;;;;11.50;79.41;101051.81;10324541;28;96702;-75
2023/03/14 03:33:32;;;;;;;18.70;4.32;;;;;;;11.49;79.05;101060.66;10299352;28;96815;-76
2023/03/14 03:38:36;;;;;;;13.95;4.05;;;;;;;11.57;78.52;101069.19;10338434;28;96648;-76
2023/03/14 03:43:41;;;;;;;19.13;4.75;;;;;;;11.50;79.75;101065.88;10337409;28;96736;-76
2023/03/14 03:48:44;;;;;;;22.58;5.97;;;;;;;11.45;80.43;101072.19;10337434;28;96877;-76
2023/03/14 03:53:47;;;;;;;19.23;6.03;;;;;;;11.49;79.03;101069.44;10343512;28;96762;-75
2023/03/14 03:58:52;;;;;;;23.13;7.05;;;;;;;11.36;79.45;101078.59;10344193;28;96751;-75
2023/03/14 04:03:55;;;;;;;76.57;8.00;;;;;;;11.30;80.78;101082.25;10343493;28;96651;-75
2023/03/14 04:08:59;;;;;;;52.35;7.40;;;;;;;11.35;79.95;101082.16;10344016;28;97210;-75
2023/03/14 04:14:04;;;;;;;86.60;8.55;;;;;;;11.38;79.46;101080.28;10343749;28;96824;-76
2023/03/14 04:19:07;;;;;;;99.53;8.82;;;;;;;11.33;80.06;101082.19;10343326;28;96769;-75
2023/03/14 04:24:10;;;;;;;20.48;5.30;;;;;;;11.27;79.82;101082.38;10343274;28;96682;-75
2023/03/14 04:29:15;;;;;;;165.10;12.73;;;;;;;11.25;80.22;101085.97;10343513;28;96562;-75
2023/03/14 04:34:18;;;;;;;111.90;13.10;;;;;;;11.30;80.55;101081.44;10342580;28;96747;-76
2023/03/14 04:39:21;;;;;;;199.48;13.40;;;;;;;11.31;80.27;101089.28;10341695;28;97017;-75
2023/03/14 04:44:26;;;;;;;223.73;13.35;;;;;;;11.35;79.65;101088.25;10341803;28;96677;-75
2023/03/14 04:49:29;;;;;;;166.55;11.68;;;;;;;11.47;79.29;101087.06;10342087;28;96764;-76
2023/03/14 04:54:33;;;;;;;207.07;12.93;;;;;;;11.46;78.96;101079.19;10341245;28;97029;-76
2023/03/14 04:59:38;;;;;;;169.00;11.27;;;;;;;11.44;79.99;101081.00;10341680;28;96848;-76
2023/03/14 05:04:41;;;;;;;81.70;6.55;;;;;;;11.37;79.09;101075.91;10340963;28;96770;-76
2023/03/14 05:09:44;;;;;;;73.32;6.28;;;;;;;11.50;78.91;101076.41;10341242;28;96652;-76
2023/03/14 05:14:49;;;;;;;86.35;6.85;;;;;;;11.37;78.84;101081.19;10341702;28;96680;-76
2023/03/14 05:19:52;;;;;;;91.13;5.85;;;;;;;11.33;79.53;101084.84;10342849;28;96839;-75
2023/03/14 05:24:58;;;;;;;58.95;5.05;;;;;;;11.25;80.04;101099.16;10341365;28;96617;-75
2023/03/14 05:30:03;;;;;;;20.17;3.20;;;;;;;11.20;79.56;101099.25;10340204;28;96889;-75
2023/03/14 05:35:07;;;;;;;65.97;5.40;;;;;;;11.17;79.36;101104.63;10340004;28;96842;-75
2023/03/14 05:40:11;;;;;;;21.92;4.18;;;;;;;11.17;79.15;101106.38;10340976;28;96670;-76
2023/03/14 05:45:16;;;;;;;62.78;5.35;;;;;;;11.23;79.16;101109.69;10321657;28;96821;-75
2023/03/14 05:50:19;;;;;;;116.38;7.78;;;;;;;11.06;79.54;101114.56;10337816;28;96624;-75
2023/03/14 05:55:23;;;;;;;90.95;6.55;;;;;;;10.99;80.26;101133.22;10340820;28;96894;-75
2023/03/14 06:00:28;;;;;;;98.45;7.00;;;;;;;10.95;80.05;101134.19;10339265;28;96702;-75
2023/03/14 06:05:31;;;;;;;64.47;5.07;;;;;;;11.02;80.48;101134.00;10340620;28;96662;-76
2023/03/14 06:10:36;;;;;;;49.30;5.05;;;;;;;11.02;80.17;101144.53;10340552;28;96777;-75
2023/03/14 06:15:40;;;;;;;45.20;4.10;;;;;;;10.73;80.89;101146.22;10339951;28;96733;-75
2023/03/14 06:20:44;;;;;;;36.63;4.15;;;;;;;10.84;79.46;101155.53;10308782;28;96865;-75
2023/03/14 06:25:47;;;;;;;52.15;5.22;;;;;;;10.86;79.57;101142.34;10297652;28;97159;-75
2023/03/14 06:30:52;;;;;;;27.40;3.55;;;;;;;10.92;79.87;101143.03;10297988;28;96656;-75
2023/03/14 06:35:55;;;;;;;41.08;4.15;;;;;;;10.92;79.60;101152.72;10315635;28;96772;-75
2023/03/14 06:41:04;;;;;;;33.00;4.00;;;;;;;10.97;78.84;101158.72;10339356;28;96646;-75
2023/03/14 06:46:09;;;;;;;35.95;3.75;;;;;;;10.89;78.92;101165.94;10338909;28;96621;-75
2023/03/14 06:51:12;;;;;;;46.20;4.35;;;;;;;10.78;79.26;101162.75;10338362;28;97206;-75
2023/03/14 06:56:15;;;;;;;76.63;5.43;;;;;;;10.71;79.78;101161.19;10338197;28;96854;-75
2023/03/14 07:01:24;;;;;;;29.30;3.60;;;;;;;10.68;79.57;101175.25;10339388;28;96763;-75
2023/03/14 07:06:29;;;;;;;16.75;2.97;;;;;;;10.74;79.61;101182.16;10338525;28;96601;-75
2023/03/14 07:11:32;;;;;;;17.97;3.17;;;;;;;10.86;79.24;101180.06;10337289;28;96753;-75
2023/03/14 07:16:37;;;;;;;53.47;4.68;;;;;;;10.86;78.66;101187.09;10337207;28;96658;-75
2023/03/14 07:21:40;;;;;;;61.20;4.63;;;;;;;10.83;79.51;101192.44;10337907;28;96744;-75
2023/03/14 07:26:43;;;;;;;64.90;4.55;;;;;;;10.78;79.38;101200.47;10336274;28;96874;-75
2023/03/14 07:31:48;;;;;;;53.17;4.43;;;;;;;10.82;79.56;101209.13;10337509;28;97002;-75
2023/03/14 07:36:51;;;;;;;;;;;;;;;10.73;80.35;101209.38;10338083;28;96597;-75
2023/03/14 07:41:54;;;;;;;39.75;3.03;;;;;;;10.89;79.72;101218.59;10337350;28;96639;-75
2023/03/14 07:46:59;;;;;;;31.33;2.60;;;;;;;10.95;79.34;101226.38;10337345;28;96596;-75
2023/03/14 07:52:02;;;;;;;17.55;2.00;;;;;;;11.25;79.03;101231.72;10338015;28;96652;-75
2023/03/14 07:57:06;;;;;;;118.38;7.03;;;;;;;11.28;78.85;101241.31;10336906;28;96622;-75
2023/03/14 08:02:12;;;;;;;112.57;5.70;;;;;;;11.29;78.88;101249.19;10335813;28;97110;-75
2023/03/14 08:07:16;;;;;;;51.50;3.08;;;;;;;11.68;78.05;101256.91;10335474;28;96774;-76
2023/03/14 08:12:19;;;;;;;36.88;2.80;;;;;;;11.82;77.74;101254.75;10336902;28;97062;-75
2023/03/14 08:17:23;;;;;;;35.03;2.78;;;;;;;12.27;76.55;101263.94;10324787;28;97164;-76
2023/03/14 08:22:30;;;;;;;21.85;1.73;;;;;;;12.62;76.13;101282.16;10295188;28;96749;-76
2023/03/14 08:27:33;;;;;;;64.05;3.70;;;;;;;12.78;75.39;101277.28;10295024;28;96691;-76
2023/03/14 08:32:39;;;;;;;28.40;2.35;;;;;;;12.99;74.64;101279.25;10294938;28;96576;-76
2023/03/14 08:37:42;;;;;;;20.98;2.20;;;;;;;13.46;73.65;101283.78;10299257;28;97519;-75
2023/03/14 08:42:46;;;;;;;8.25;2.33;;;;;;;14.01;72.61;101288.81;10311466;28;96640;-76
2023/03/14 08:47:51;;;;;;;7.18;1.60;;;;;;;14.46;71.72;101295.03;10342837;28;96686;-75
2023/03/14 08:52:54;;;;;;;10.23;1.80;;;;;;;15.01;70.25;101298.97;10317904;28;96590;-75
2023/03/14 08:57:58;;;;;;;9.65;2.58;;;;;;;16.29;67.16;101305.75;10300371;28;96745;-76
2023/03/14 09:03:02;;;;;;;6.15;2.08;;;;;;;16.81;63.90;101307.66;10301301;28;96840;-76
2023/03/14 09:08:06;;;;;;;5.28;1.83;;;;;;;17.12;63.83;101313.19;10301605;28;96888;-76
2023/03/14 09:13:10;;;;;;;4.27;2.53;;;;;;;17.08;63.86;101314.31;10301042;28;96801;-76
2023/03/14 09:18:14;;;;;;;5.38;2.28;;;;;;;17.92;61.15;101312.59;10302360;28;97244;-76
2023/03/14 09:23:17;;;;;;;9.73;2.92;;;;;;;18.90;58.41;101311.63;10341933;28;96807;-76
2023/03/14 09:28:21;;;;;;;13.32;3.95;;;;;;;20.27;56.04;101320.19;10304824;28;96903;-76
2023/03/14 09:33:26;;;;;;;10.98;3.13;;;;;;;20.66;53.21;101326.69;10300889;28;96682;-76
2023/03/14 09:38:29;;;;;;;9.38;2.78;;;;;;;21.41;52.04;101314.47;10336170;28;96763;-76
2023/03/14 09:43:36;;;;;;;9.30;2.90;;;;;;;21.64;51.88;101312.09;10334985;28;96791;-76
2023/03/14 09:48:41;;;;;;;9.25;3.30;;;;;;;22.59;49.55;101315.06;10339283;28;97302;-76
2023/03/14 09:53:46;;;;;;;10.02;3.15;;;;;;;22.28;49.26;101325.44;10340717;28;96701;-76
2023/03/14 09:58:54;;;;;;;10.45;3.25;;;;;;;22.83;47.23;101320.50;10332960;28;96735;-76
2023/03/14 10:04:03;;;;;;;9.00;3.05;;;;;;;22.91;46.87;101330.66;10299211;28;96667;-76
2023/03/14 10:09:07;;;;;;;11.98;2.97;;;;;;;23.82;45.47;101330.00;10299058;28;96605;-76
2023/03/14 10:14:12;;;;;;;12.10;3.33;;;;;;;23.81;44.50;101329.13;10298808;28;96823;-76
2023/03/14 10:19:18;;;;;;;11.88;3.55;;;;;;;24.20;42.17;101330.56;10309231;28;96762;-76
2023/03/14 10:24:23;;;;;;;12.93;5.00;;;;;;;23.62;40.93;101332.38;10340597;28;96742;-74
2023/03/14 10:29:26;;;;;;;8.55;3.30;;;;;;;24.02;40.49;101332.84;10338716;28;96672;-76
2023/03/14 10:34:33;;;;;;;10.13;3.28;;;;;;;23.24;39.21;101330.84;10318232;28;96801;-73
2023/03/14 10:39:43;;;;;;;11.68;3.72;;;;;;;23.41;39.59;101346.56;10296900;28;96710;-76
2023/03/14 10:44:49;;;;;;;14.90;4.25;;;;;;;24.06;39.02;101339.72;10307845;28;96755;-76
2023/03/14 10:49:53;;;;;;;10.57;3.83;;;;;;;24.37;38.05;101346.25;10330526;28;96750;-75
2023/03/14 10:54:59;;;;;;;10.35;3.10;;;;;;;24.81;36.83;101351.59;10297830;28;96654;-76
2023/03/14 11:00:08;;;;;;;7.82;2.90;;;;;;;24.97;35.89;101351.19;10296576;28;96871;-73
2023/03/14 11:05:26;;;;;;;10.75;3.15;;;;;;;25.69;34.02;101351.34;10297563;28;96769;-73
2023/03/14 11:10:34;;;;;;;11.13;4.00;;;;;;;25.47;34.33;101348.75;10297655;28;96662;-73
2023/03/14 11:15:43;;;;;;;10.27;3.92;;;;;;;25.84;34.34;101357.31;10298014;28;96819;-73
2023/03/14 11:20:53;;;;;;;8.90;3.05;;;;;;;26.50;31.68;101342.50;10319690;28;97154;-73
2023/03/14 11:26:04;;;;;;;9.65;3.17;;;;;;;25.94;33.41;101344.72;10313160;28;96894;-73
2023/03/14 11:31:17;;;;;;;7.22;2.60;;;;;;;26.69;30.96;101337.19;10294691;28;96845;-73
2023/03/14 11:36:28;;;;;;;11.02;3.25;;;;;;;27.33;30.35;101321.38;10296994;28;97202;-74
2023/03/14 11:41:37;;;;;;;9.15;2.92;;;;;;;27.68;29.39;101322.56;10297241;28;96753;-73
2023/03/14 11:46:43;;;;;;;7.75;2.80;;;;;;;27.61;28.35;101321.41;10307069;28;96780;-74
2023/03/14 11:51:51;;;;;;;10.88;3.08;;;;;;;27.89;27.69;101317.81;10337508;28;96642;-74
2023/03/14 11:56:59;;;;;;;7.43;3.33;;;;;;;27.86;29.44;101311.84;10336685;28;96630;-74
2023/03/14 12:02:06;;;;;;;8.95;3.35;;;;;;;28.98;27.47;101305.25;10296003;28;96728;-74
2023/03/14 12:07:20;;;;;;;8.35;3.08;;;;;;;29.13;27.17;101297.47;10296701;28;96632;-74
2023/03/14 12:12:25;;;;;;;6.05;2.83;;;;;;;28.81;26.79;101294.38;10300515;28;96774;-74
2023/03/14 12:17:36;;;;;;;8.68;2.92;;;;;;;28.46;27.08;101281.63;10303372;28;96809;-73
2023/03/14 12:22:45;;;;;;;9.52;3.47;;;;;;;28.06;27.72;101284.56;10339640;28;96646;-73
2023/03/14 12:28:05;;;;;;;9.02;3.28;;;;;;;27.90;27.41;101278.09;10342940;28;96646;-73
2023/03/14 12:33:27;;;;;;;10.23;3.65;;;;;;;26.14;28.91;101260.22;10325226;28;96769;-73
2023/03/14 12:38:44;;;;;;;6.75;2.97;;;;;;;26.79;29.10;101248.91;10331676;28;96625;-73
2023/03/14 12:43:48;;;;;;;8.13;3.00;;;;;;;26.53;29.12;101255.81;10343174;28;96699;-73
2023/03/14 12:48:56;;;;;;;11.50;3.83;;;;;;;27.14;30.42;101253.81;10335129;28;96800;-73
2023/03/14 12:54:38;;;;;;;7.35;3.28;;;;;;;26.97;28.94;101269.69;10300837;28;97103;-73
2023/03/14 12:59:51;;;;;;;11.05;3.88;;;;;;;26.80;29.46;101243.38;10299490;28;96849;-73
2023/03/14 13:05:03;;;;;;;8.55;4.20;;;;;;;26.70;28.56;101247.91;10301323;28;96690;-73
2023/03/14 13:10:23;;;;;;;10.93;4.43;;;;;;;27.07;29.48;101249.97;10301106;28;96535;-73
2023/03/14 13:15:31;;;;;;;11.02;3.55;;;;;;;25.27;31.22;101230.16;10299782;28;96647;-73
2023/03/14 13:20:37;;;;;;;10.88;3.80;;;;;;;25.70;31.65;101228.19;10321686;28;96922;-73
2023/03/14 13:25:40;;;;;;;9.25;3.55;;;;;;;25.58;31.08;101213.91;10309927;28;96763;-73
2023/03/14 13:30:47;;;;;;;7.72;3.30;;;;;;;26.44;30.27;101205.34;10299690;28;96862;-73
2023/03/14 13:35:56;;;;;;;10.27;3.70;;;;;;;26.40;31.38;101202.09;10300306;28;96961;-73
2023/03/14 13:41:01;;;;;;;7.47;3.22;;;;;;;26.26;30.13;101199.78;10300485;28;97199;-73
2023/03/14 13:46:13;;;;;;;7.35;3.42;;;;;;;26.63;30.22;101195.44;10299936;28;96675;-73
2023/03/14 13:51:19;;;;;;;9.07;3.58;;;;;;;27.47;29.82;101191.19;10317501;28;96800;-73
2023/03/14 13:56:23;;;;;;;11.23;3.55;;;;;;;27.14;30.21;101184.41;10336923;28;97442;-73
2023/03/14 14:01:32;;;;;;;11.77;3.90;;;;;;;27.21;30.40;101190.09;10299371;28;96625;-73
2023/03/14 14:06:37;;;;;;;12.93;4.45;;;;;;;27.29;29.88;101177.56;10298072;28;96786;-74
2023/03/14 14:11:47;;;;;;;10.90;4.07;;;;;;;27.28;30.08;101162.34;10298935;28;96671;-73
2023/03/14 14:17:14;;;;;;;8.55;3.20;;;;;;;26.65;30.00;101163.78;10299249;28;96567;-76
2023/03/14 14:22:18;;;;;;;9.32;3.50;;;;;;;26.47;31.34;101157.34;10333765;28;96917;-76
2023/03/14 14:27:31;;;;;;;9.18;3.97;;;;;;;25.81;32.02;101153.44;10339802;28;96813;-74
2023/03/14 14:32:41;;;;;;;10.52;3.97;;;;;;;25.86;32.01;101153.06;10338945;28;96754;-74
2023/03/14 14:37:45;;;;;;;11.35;3.50;;;;;;;24.89;33.65;101151.69;10339485;28;96697;-74
2023/03/14 14:42:50;;;;;;;11.57;4.18;;;;;;;24.03;35.81;101137.41;10340183;28;96641;-74
2023/03/14 14:47:56;;;;;;;9.65;4.25;;;;;;;24.33;35.09;101130.38;10337804;28;98073;-74
2023/03/14 14:53:01;;;;;;;12.15;4.95;;;;;;;24.44;35.16;101125.00;10338881;28;96649;-74
2023/03/14 14:58:19;;;;;;;12.07;5.45;;;;;;;23.55;35.99;101126.91;10337386;28;97313;-74
2023/03/14 15:03:28;;;;;;;13.20;4.85;;;;;;;23.71;36.41;101118.50;10338839;28;96671;-74
2023/03/14 15:08:31;;;;;;;8.73;4.28;;;;;;;23.10;36.99;101122.44;10300916;28;96605;-74
2023/03/14 15:13:34;;;;;;;9.03;4.00;;;;;;;22.08;38.13;101117.72;10297463;28;96851;-74
2023/03/14 15:18:39;;;;;;;11.48;3.40;;;;;;;22.63;37.38;101106.41;10297150;28;96661;-74
2023/03/14 15:23:44;;;;;;;12.48;4.22;;;;;;;22.60;37.66;101109.31;10308031;28;96896;-74
2023/03/14 15:28:47;;;;;;;10.98;4.05;;;;;;;22.67;38.78;101113.25;10296392;28;96704;-74
2023/03/14 15:33:52;;;;;;;9.70;3.60;;;;;;;22.95;38.09;101107.53;10297533;28;96791;-75
2023/03/14 15:38:57;;;;;;;10.48;3.40;;;;;;;21.91;38.64;101099.31;10318283;28;97191;-74
2023/03/14 15:44:00;;;;;;;11.82;3.85;;;;;;;21.58;40.14;101099.06;10296588;28;96971;-74
2023/03/14 15:49:04;;;;;;;13.38;5.53;;;;;;;21.21;40.72;101107.97;10302494;28;96803;-74
2023/03/14 15:54:08;;;;;;;12.10;5.07;;;;;;;21.10;41.96;101097.97;10343700;28;96737;-74
2023/03/14 15:59:11;;;;;;;11.18;4.60;;;;;;;20.86;42.25;101107.69;10309326;28;96728;-74
2023/03/14 16:04:15;;;;;;;10.57;4.32;;;;;;;20.52;42.15;101102.94;10303382;28;96743;-74
2023/03/14 16:09:19;;;;;;;10.35;4.32;;;;;;;20.56;42.63;101099.09;10303007;28;96704;-74
2023/03/14 16:14:23;;;;;;;10.55;3.85;;;;;;;20.37;43.08;101101.28;10303483;28;96830;-74
2023/03/14 16:19:28;;;;;;;10.45;2.90;;;;;;;20.38;44.15;101101.19;10302895;28;96720;-74
2023/03/14 16:24:31;;;;;;;9.60;3.13;;;;;;;19.99;44.51;101102.91;10344129;28;97178;-74
2023/03/14 16:29:34;;;;;;;11.02;3.60;;;;;;;19.87;44.51;101090.34;10337783;28;97148;-74
2023/03/14 16:34:40;;;;;;;11.00;3.28;;;;;;;19.67;45.45;101091.63;10302243;28;96758;-75
2023/03/14 16:39:43;;;;;;;10.73;4.13;;;;;;;19.45;45.87;101101.09;10301476;28;96829;-74
2023/03/14 16:45:07;;;;;;;10.52;3.55;;;;;;;19.20;46.94;101083.03;10301843;28;96661;-74
2023/03/14 16:50:12;;;;;;;10.13;3.90;;;;;;;19.22;47.07;101078.47;10302210;28;96768;-74
2023/03/14 16:55:15;;;;;;;;;;;;;;;18.99;48.73;101081.69;10338526;28;96763;-74
2023/03/14 17:00:19;;;;;;;15.35;5.32;;;;;;;18.80;48.24;101083.78;10341316;28;97673;-74
2023/03/14 17:05:24;;;;;;;14.23;6.30;;;;;;;18.56;48.64;101080.75;10321938;28;96832;-74
2023/03/14 17:10:27;;;;;;;11.43;4.88;;;;;;;18.62;49.30;101074.19;10301533;28;96813;-74
2023/03/14 17:15:30;;;;;;;12.25;4.85;;;;;;;18.50;49.19;101075.78;10301579;28;96726;-74
2023/03/14 17:20:35;;;;;;;13.98;4.60;;;;;;;18.32;49.58;101073.28;10307797;28;96576;-74
2023/03/14 17:25:38;;;;;;;;;;;;;;;18.32;50.51;101081.28;10342375;28;96761;-74
2023/03/14 17:30:41;;;;;;;11.38;4.28;;;;;;;18.23;49.84;101089.84;10340224;28;96845;-74
2023/03/14 17:35:45;;;;;;;13.80;4.90;;;;;;;18.25;50.22;101083.44;10341503;28;96743;-74
2023/03/14 17:40:49;;;;;;;14.38;5.28;;;;;;;18.13;50.48;101069.03;10340436;28;97227;-74
2023/03/14 17:45:57;;;;;;;13.02;4.45;;;;;;;18.01;51.56;101077.75;10341103;28;96622;-76
2023/03/14 17:51:02;;;;;;;18.52;4.75;;;;;;;17.91;50.97;101083.66;10340622;28;96781;-76
2023/03/14 17:56:06;;;;;;;11.13;3.80;;;;;;;17.78;52.02;101071.97;10322303;28;97409;-76
2023/03/14 18:01:11;;;;;;;10.90;3.37;;;;;;;17.51;52.43;101081.50;10299359;28;96704;-76
2023/03/14 18:06:17;;;;;;;10.43;4.15;;;;;;;17.34;53.07;101082.41;10300089;28;97193;-76
2023/03/14 18:11:21;;;;;;;12.18;4.22;;;;;;;17.16;53.39;101088.69;10299205;28;97452;-76
2023/03/14 18:16:24;;;;;;;14.20;4.43;;;;;;;17.04;54.00;101092.88;10299058;28;96600;-76
2023/03/14 18:21:29;;;;;;;11.98;4.20;;;;;;;16.94;54.79;101091.66;10297716;28;96800;-76
2023/03/14 18:26:33;;;;;;;11.88;3.85;;;;;;;16.81;55.03;101090.56;10338988;28;96560;-76
2023/03/14 18:31:36;;;;;;;21.23;5.15;;;;;;;16.71;55.71;101093.75;10308988;28;97375;-76
2023/03/14 18:36:41;;;;;;;15.23;4.80;;;;;;;16.68;56.45;101092.13;10304895;28;97268;-76
2023/03/14 18:41:44;;;;;;;16.92;6.25;;;;;;;16.60;56.92;101090.81;10339464;28;96706;-76
2023/03/14 18:46:47;;;;;;;16.67;6.03;;;;;;;16.53;57.20;101100.03;10323482;28;96880;-76
2023/03/14 18:51:52;;;;;;;11.68;4.97;;;;;;;16.49;56.19;101101.13;10306532;28;97169;-76
2023/03/14 18:56:55;;;;;;;15.52;6.40;;;;;;;16.23;57.55;101105.03;10339505;28;97758;-76
2023/03/14 19:01:58;;;;;;;15.38;5.55;;;;;;;16.12;58.72;101109.13;10338438;28;97612;-76
2023/03/14 19:07:03;;;;;;;11.70;4.75;;;;;;;16.04;59.05;101111.31;10338521;28;96835;-76
2023/03/14 19:12:06;;;;;;;16.67;5.60;;;;;;;15.99;58.86;101110.69;10337353;28;96861;-76
2023/03/14 19:17:09;;;;;;;18.65;6.25;;;;;;;15.91;59.36;101117.22;10338377;28;96686;-76
2023/03/14 19:22:14;;;;;;;17.48;5.88;;;;;;;15.74;60.35;101122.47;10329886;28;96758;-76
2023/03/14 19:27:19;;;;;;;14.98;5.35;;;;;;;15.65;60.78;101130.84;10296631;28;96776;-76
2023/03/14 19:32:22;;;;;;;16.35;5.78;;;;;;;15.64;61.14;101126.47;10296758;28;96706;-76
2023/03/14 19:37:26;;;;;;;13.50;5.78;;;;;;;15.47;61.78;101131.72;10308957;28;96961;-76
2023/03/14 19:42:29;;;;;;;18.08;6.60;;;;;;;15.34;61.97;101138.47;10337830;28;96589;-76
2023/03/14 19:47:33;;;;;;;11.73;5.88;;;;;;;15.37;62.41;101134.84;10338102;28;96773;-76
2023/03/14 19:52:42;;;;;;;14.07;7.28;;;;;;;15.38;62.17;101144.50;10337961;28;96792;-76
2023/03/14 19:57:45;;;;;;;17.05;8.25;;;;;;;15.46;61.72;101163.56;10297246;28;96792;-76
2023/03/14 20:02:50;;;;;;;22.38;7.53;;;;;;;15.45;61.92;101161.88;10295148;28;96640;-76
2023/03/14 20:07:54;;;;;;;;;;;;;;;15.21;62.93;101165.59;10296126;28;96566;-76
2023/03/14 20:12:58;;;;;;;20.45;6.85;;;;;;;15.03;63.49;101161.06;10296942;28;96810;-76
2023/03/14 20:18:08;;;;;;;18.73;7.80;;;;;;;15.11;63.11;101169.56;10295969;28;96775;-76
2023/03/14 20:23:13;;;;;;;16.80;7.78;;;;;;;14.92;63.64;101172.16;10309875;28;96711;-76
2023/03/14 20:28:16;;;;;;;16.65;8.07;;;;;;;14.75;64.46;101179.94;10335463;28;96652;-76
2023/03/14 20:33:19;;;;;;;18.33;7.88;;;;;;;14.72;64.10;101182.72;10340704;28;96699;-76
2023/03/14 20:38:26;;;;;;;15.30;6.70;;;;;;;14.61;64.90;101185.81;10343864;28;97062;-76
2023/03/14 20:43:31;;;;;;;16.98;7.70;;;;;;;14.59;64.92;101184.19;10342458;28;97217;-76
2023/03/14 20:48:34;;;;;;;;;;;;;;;14.72;65.31;101180.06;10342309;28;96637;-76
2023/03/14 20:53:38;;;;;;;20.75;9.05;;;;;;;14.74;64.26;101180.88;10342194;28;97230;-76
2023/03/14 20:58:44;;;;;;;17.77;8.00;;;;;;;14.53;64.90;101181.75;10342929;28;98493;-76
2023/03/14 21:03:47;;;;;;;16.13;7.63;;;;;;;14.45;65.21;101182.06;10319049;28;97300;-76
2023/03/14 21:08:52;;;;;;;16.15;7.65;;;;;;;14.40;65.53;101180.56;10301164;28;96981;-76
2023/03/14 21:13:55;;;;;;;15.93;8.15;;;;;;;14.54;65.13;101176.41;10300802;28;96526;-76
2023/03/14 21:18:58;;;;;;;19.25;7.93;;;;;;;14.38;65.52;101164.72;10301027;28;96772;-76
2023/03/14 21:24:02;;;;;;;20.38;8.48;;;;;;;14.34;65.83;101156.94;10308546;28;96784;-76
2023/03/14 21:29:06;;;;;;;19.95;8.73;;;;;;;14.29;66.01;101158.94;10341910;28;96789;-76
2023/03/14 21:34:09;;;;;;;19.15;8.55;;;;;;;14.34;65.83;101164.91;10341388;28;97182;-76
2023/03/14 21:39:14;;;;;;;16.83;7.50;;;;;;;14.21;66.01;101150.44;10329660;28;97384;-76
2023/03/14 21:44:19;;;;;;;17.27;7.80;;;;;;;13.90;66.85;101148.09;10339789;28;97027;-76
2023/03/14 21:49:24;;;;;;;17.45;7.72;;;;;;;13.91;66.65;101135.72;10340804;28;96722;-76
2023/03/14 21:54:32;;;;;;;19.70;9.25;;;;;;;13.77;67.45;101143.34;10333087;28;96671;-76
2023/03/14 21:59:37;;;;;;;18.70;8.43;;;;;;;13.48;68.73;101144.47;10340725;28;96527;-76
2023/03/14 22:04:40;;;;;;;21.63;8.18;;;;;;;13.44;68.60;101140.19;10340498;28;97634;-76
2023/03/14 22:09:46;;;;;;;15.90;6.85;;;;;;;13.31;68.83;101146.88;10339589;28;96828;-76
2023/03/14 22:14:49;;;;;;;20.95;8.05;;;;;;;13.31;68.84;101144.22;10340336;28;96696;-76
2023/03/14 22:19:52;;;;;;;17.58;7.97;;;;;;;13.36;68.47;101143.09;10340489;28;96760;-76
2023/03/14 22:24:57;;;;;;;20.45;8.15;;;;;;;13.33;69.05;101142.34;10339956;28;96766;-76
2023/03/14 22:30:00;;;;;;;12.23;7.28;;;;;;;13.27;69.06;101129.38;10305179;28;96884;-76
2023/03/14 22:35:03;;;;;;;19.70;7.97;;;;;;;13.27;69.58;101130.25;10297668;28;96729;-76
2023/03/14 22:40:10;;;;;;;23.20;7.65;;;;;;;13.46;68.90;101117.22;10298351;28;96805;-76
2023/03/14 22:45:13;;;;;;;20.15;7.93;;;;;;;13.42;69.00;101113.81;10298858;28;97544;-76
2023/03/14 22:50:16;;;;;;;22.13;8.85;;;;;;;13.26;69.28;101111.81;10298045;28;96575;-75
2023/03/14 22:55:21;;;;;;;20.23;8.23;;;;;;;13.15;69.31;101099.00;10304700;28;96935;-76
2023/03/14 23:00:25;;;;;;;16.20;7.75;;;;;;;13.06;69.82;101082.59;10334433;28;96855;-75
2023/03/14 23:05:29;;;;;;;18.63;8.53;;;;;;;13.08;70.12;101083.41;10297062;28;96809;-75
2023/03/14 23:10:33;;;;;;;21.20;7.50;;;;;;;13.27;69.58;101076.53;10297955;28;96702;-75
2023/03/14 23:15:37;;;;;;;17.25;7.75;;;;;;;12.97;69.67;101075.00;10297425;28;96738;-75